createdAt,value
2018-12-22T00:01:22.055Z,8.87
2018-12-22T00:03:50.225Z,9.73
2018-12-22T00:06:18.347Z,9.30
2018-12-22T00:08:46.533Z,9.50
2018-12-22T00:11:14.727Z,8.67
2018-12-22T00:13:42.845Z,8.20
2018-12-22T00:16:11.008Z,9.10
2018-12-22T00:18:39.168Z,8.30
2018-12-22T00:21:07.313Z,9.58
2018-12-22T00:23:35.443Z,8.63
2018-12-22T00:26:03.684Z,8.10
2018-12-22T00:28:31.810Z,7.90
2018-12-22T00:30:59.988Z,8.63
2018-12-22T00:33:28.130Z,9.27
2018-12-22T00:35:56.275Z,7.77
2018-12-22T00:38:24.405Z,8.50
2018-12-22T00:40:52.529Z,8.43
2018-12-22T00:43:20.663Z,9.18
2018-12-22T00:45:48.789Z,9.57
2018-12-22T00:48:17.697Z,9.05
2018-12-22T00:50:45.849Z,8.90
2018-12-22T00:53:13.995Z,8.50
2018-12-22T00:55:42.212Z,8.10
2018-12-22T00:58:10.347Z,8.53
2018-12-22T01:00:38.480Z,8.43
2018-12-22T01:03:06.612Z,8.88
2018-12-22T01:05:34.758Z,8.58
2018-12-22T01:08:02.894Z,8.80
2018-12-22T01:10:31.528Z,8.47
2018-12-22T01:12:59.673Z,8.43
2018-12-22T01:15:27.789Z,8.33
2018-12-22T01:17:55.939Z,7.70
2018-12-22T01:20:24.154Z,8.53
2018-12-22T01:22:52.279Z,9.33
2018-12-22T01:25:20.405Z,9.70
2018-12-22T01:27:48.559Z,7.83
2018-12-22T01:30:16.670Z,8.10
2018-12-22T01:32:44.839Z,9.40
2018-12-22T01:35:12.968Z,9.40
2018-12-22T01:37:41.097Z,9.77
2018-12-22T01:40:09.347Z,9.13
2018-12-22T01:42:37.462Z,7.83
2018-12-22T01:45:06.472Z,8.63
2018-12-22T01:47:34.610Z,8.27
2018-12-22T01:50:02.748Z,8.45
2018-12-22T01:52:30.874Z,8.98
2018-12-22T01:54:58.998Z,9.53
2018-12-22T01:57:27.119Z,9.10
2018-12-22T01:59:55.242Z,8.70
2018-12-22T02:02:23.386Z,8.83
2018-12-22T02:04:51.490Z,9.23
2018-12-22T02:07:19.623Z,9.33
2018-12-22T02:09:47.749Z,8.95
2018-12-22T02:12:15.893Z,10.33
2018-12-22T02:14:44.146Z,8.35
2018-12-22T02:17:12.273Z,7.77
2018-12-22T02:19:40.496Z,7.60
2018-12-22T02:22:08.613Z,7.43
2018-12-22T02:24:36.744Z,7.23
2018-12-22T02:27:04.859Z,6.17
2018-12-22T02:29:32.992Z,7.57
2018-12-22T02:32:01.137Z,7.97
2018-12-22T02:34:29.275Z,8.37
2018-12-22T02:36:57.410Z,8.00
2018-12-22T02:39:25.574Z,7.67
2018-12-22T02:41:53.704Z,7.87
2018-12-22T02:44:21.834Z,8.80
2018-12-22T02:46:49.987Z,9.10
2018-12-22T02:49:18.119Z,7.95
2018-12-22T02:51:46.255Z,8.45
2018-12-22T02:54:14.395Z,7.60
2018-12-22T02:56:42.518Z,7.92
2018-12-22T02:59:10.646Z,9.10
2018-12-22T03:01:38.932Z,8.20
2018-12-22T03:04:07.108Z,7.20
2018-12-22T03:06:35.249Z,7.93
2018-12-22T03:09:05.385Z,8.00
2018-12-22T03:11:33.527Z,7.40
2018-12-22T03:14:01.763Z,6.92
2018-12-22T03:16:29.888Z,7.15
2018-12-22T03:18:58.038Z,8.13
2018-12-22T03:21:26.153Z,7.53
2018-12-22T03:23:54.255Z,7.17
2018-12-22T03:26:22.466Z,7.87
2018-12-22T03:28:50.594Z,6.80
2018-12-22T03:31:18.750Z,6.53
2018-12-22T03:33:46.991Z,6.63
2018-12-22T03:36:15.221Z,7.08
2018-12-22T03:38:43.367Z,6.83
2018-12-22T03:41:11.506Z,7.15
2018-12-22T03:43:39.614Z,7.05
2018-12-22T03:46:07.749Z,8.00
2018-12-22T03:48:35.862Z,7.43
2018-12-22T03:51:05.506Z,7.20
2018-12-22T03:53:33.640Z,6.90
2018-12-22T03:56:01.788Z,7.67
2018-12-22T03:58:29.928Z,8.30
2018-12-22T04:00:58.090Z,7.47
2018-12-22T04:03:26.223Z,7.00
2018-12-22T04:05:54.431Z,7.27
2018-12-22T04:08:22.562Z,7.23
2018-12-22T04:10:50.673Z,7.23
2018-12-22T04:13:18.802Z,6.37
2018-12-22T04:15:47.063Z,6.87
2018-12-22T04:18:15.183Z,7.03
2018-12-22T04:20:43.327Z,7.12
2018-12-22T04:23:11.445Z,6.28
2018-12-22T04:25:39.559Z,5.73
2018-12-22T04:28:07.692Z,5.50
2018-12-22T04:30:35.854Z,5.03
2018-12-22T04:33:04.056Z,4.97
2018-12-22T04:35:32.268Z,5.40
2018-12-22T04:38:00.415Z,4.13
2018-12-22T04:40:28.555Z,4.50
2018-12-22T04:42:56.707Z,4.42
2018-12-22T04:45:24.813Z,4.23
2018-12-22T04:47:52.927Z,3.80
2018-12-22T04:50:21.092Z,3.55
2018-12-22T04:52:51.843Z,4.63
2018-12-22T04:55:21.321Z,4.12
2018-12-22T04:57:49.443Z,4.00
2018-12-22T05:00:17.587Z,3.70
2018-12-22T05:02:45.701Z,4.30
2018-12-22T05:05:13.835Z,4.17
2018-12-22T05:07:41.950Z,3.93
2018-12-22T05:10:10.083Z,3.02
2018-12-22T05:12:38.209Z,4.10
2018-12-22T05:15:08.309Z,3.70
2018-12-22T05:17:36.433Z,3.83
2018-12-22T05:20:06.762Z,3.43
2018-12-22T05:22:35.013Z,3.67
2018-12-22T05:25:03.157Z,3.90
2018-12-22T05:27:31.336Z,3.77
2018-12-22T05:29:59.455Z,3.83
2018-12-22T05:32:27.605Z,3.62
2018-12-22T05:34:55.726Z,4.30
2018-12-22T05:37:23.863Z,3.87
2018-12-22T05:39:51.972Z,3.73
2018-12-22T05:42:20.097Z,4.13
2018-12-22T05:44:48.276Z,3.70
2018-12-22T05:47:16.393Z,3.50
2018-12-22T05:49:44.540Z,4.10
2018-12-22T05:52:12.660Z,3.45
2018-12-22T05:54:40.805Z,4.37
2018-12-22T05:57:08.953Z,4.00
2018-12-22T05:59:37.106Z,4.00
2018-12-22T06:02:05.231Z,3.70
2018-12-22T06:04:33.468Z,4.20
2018-12-22T06:07:01.612Z,3.70
2018-12-22T06:09:29.747Z,4.00
2018-12-22T06:11:57.872Z,3.97
2018-12-22T06:14:25.996Z,4.30
2018-12-22T06:16:54.148Z,4.03
2018-12-22T06:19:22.269Z,3.73
2018-12-22T06:21:50.492Z,4.53
2018-12-22T06:24:18.637Z,4.50
2018-12-22T06:26:46.786Z,4.13
2018-12-22T06:29:14.946Z,3.70
2018-12-22T06:31:43.088Z,3.50
2018-12-22T06:34:11.208Z,4.40
2018-12-22T06:36:39.446Z,3.40
2018-12-22T06:39:07.603Z,4.07
2018-12-22T06:41:35.698Z,3.97
2018-12-22T06:44:04.646Z,3.73
2018-12-22T06:46:32.776Z,4.08
2018-12-22T06:49:00.899Z,4.23
2018-12-22T06:51:29.021Z,3.80
2018-12-22T06:53:57.221Z,4.33
2018-12-22T06:56:25.364Z,4.10
2018-12-22T06:58:53.663Z,4.50
2018-12-22T07:01:21.928Z,4.60
2018-12-22T07:03:50.115Z,4.80
2018-12-22T07:06:18.312Z,3.57
2018-12-22T07:08:46.458Z,3.93
2018-12-22T07:11:15.101Z,3.33
2018-12-22T07:13:44.222Z,3.20
2018-12-22T07:16:12.420Z,3.30
2018-12-22T07:18:40.598Z,3.00
2018-12-22T07:21:08.733Z,3.90
2018-12-22T07:23:36.852Z,3.80
2018-12-22T07:26:04.998Z,4.20
2018-12-22T07:28:33.156Z,4.90
2018-12-22T07:31:01.290Z,5.13
2018-12-22T07:33:29.472Z,4.90
2018-12-22T07:35:57.591Z,5.63
2018-12-22T07:38:25.752Z,5.77
2018-12-22T07:40:53.963Z,5.35
2018-12-22T07:43:22.091Z,5.43
2018-12-22T07:45:50.215Z,5.17
2018-12-22T07:48:18.393Z,4.80
2018-12-22T07:50:46.523Z,4.53
2018-12-22T07:53:14.713Z,4.45
2018-12-22T07:55:43.768Z,4.58
2018-12-22T07:58:11.940Z,4.00
2018-12-22T08:00:40.032Z,4.33
2018-12-22T08:03:08.178Z,3.70
2018-12-22T08:05:38.961Z,3.50
2018-12-22T08:08:06.488Z,3.20
2018-12-22T08:10:34.657Z,3.30
2018-12-22T08:13:02.807Z,3.07
2018-12-22T08:15:30.928Z,2.60
2018-12-22T08:17:59.088Z,2.98
2018-12-22T08:20:27.240Z,2.57
2018-12-22T08:22:55.393Z,3.00
2018-12-22T08:25:23.605Z,2.77
2018-12-22T08:27:51.721Z,2.58
2018-12-22T08:30:20.254Z,2.42
2018-12-22T08:32:48.397Z,2.47
2018-12-22T08:35:16.542Z,2.40
2018-12-22T08:37:44.812Z,2.27
2018-12-22T08:40:12.963Z,2.33
2018-12-22T08:42:41.097Z,2.40
2018-12-22T08:45:09.321Z,2.10
2018-12-22T08:47:37.487Z,2.15
2018-12-22T08:50:09.463Z,1.95
2018-12-22T08:52:37.900Z,2.87
2018-12-22T08:55:07.208Z,2.52
2018-12-22T08:57:35.335Z,2.55
2018-12-22T09:00:05.465Z,2.40
2018-12-22T09:02:33.623Z,2.12
2018-12-22T09:05:01.774Z,2.23
2018-12-22T09:07:30.145Z,2.50
2018-12-22T09:09:58.311Z,2.20
2018-12-22T09:12:26.421Z,2.03
2018-12-22T09:14:54.619Z,2.00
2018-12-22T09:17:22.757Z,2.70
2018-12-22T09:19:50.907Z,1.90
2018-12-22T09:22:19.048Z,2.33
2018-12-22T09:24:47.211Z,2.42
2018-12-22T09:27:15.346Z,2.20
2018-12-22T09:29:43.501Z,2.42
2018-12-22T09:32:11.781Z,2.77
2018-12-22T09:34:39.913Z,3.00
2018-12-22T09:37:08.144Z,3.17
2018-12-22T09:39:36.429Z,2.80
2018-12-22T09:42:04.548Z,2.95
2018-12-22T09:44:32.706Z,2.83
2018-12-22T09:47:00.897Z,2.92
2018-12-22T09:49:29.056Z,3.10
2018-12-22T09:51:57.193Z,3.03
2018-12-22T09:54:25.350Z,2.67
2018-12-22T09:56:53.481Z,3.33
2018-12-22T09:59:21.648Z,2.70
2018-12-22T10:01:50.637Z,3.00
2018-12-22T10:04:18.783Z,2.37
2018-12-22T10:06:47.034Z,3.45
2018-12-22T10:09:15.213Z,2.97
2018-12-22T10:11:43.353Z,3.25
2018-12-22T10:14:11.484Z,2.77
2018-12-22T10:16:39.692Z,3.60
2018-12-22T10:19:07.808Z,3.53
2018-12-22T10:21:35.988Z,3.47
2018-12-22T10:24:04.198Z,4.03
2018-12-22T10:26:32.319Z,3.47
2018-12-22T10:29:00.753Z,3.67
2018-12-22T10:31:28.932Z,4.27
2018-12-22T10:33:57.047Z,4.07
2018-12-22T10:36:25.211Z,4.17
2018-12-22T10:38:53.421Z,4.08
2018-12-22T10:41:21.628Z,3.60
2018-12-22T10:43:49.799Z,3.83
2018-12-22T10:46:17.933Z,3.37
2018-12-22T10:48:46.110Z,2.93
2018-12-22T10:51:14.922Z,3.60
2018-12-22T10:53:43.073Z,3.73
2018-12-22T10:56:11.384Z,3.90
2018-12-22T10:58:39.564Z,2.90
2018-12-22T11:01:07.728Z,3.03
2018-12-22T11:03:35.895Z,3.63
2018-12-22T11:06:04.089Z,3.17
2018-12-22T11:08:32.534Z,3.02
2018-12-22T11:11:00.680Z,2.70
2018-12-22T11:13:29.939Z,2.95
2018-12-22T11:15:58.087Z,3.30
2018-12-22T11:18:26.271Z,3.20
2018-12-22T11:20:54.455Z,2.70
2018-12-22T11:23:22.639Z,3.03
2018-12-22T11:25:50.976Z,3.17
2018-12-22T11:28:19.139Z,2.75
2018-12-22T11:30:47.286Z,3.17
2018-12-22T11:33:15.479Z,2.70
2018-12-22T11:35:44.563Z,2.92
2018-12-22T11:38:12.729Z,3.02
2018-12-22T11:40:40.980Z,3.47
2018-12-22T11:43:09.138Z,3.47
2018-12-22T11:45:37.338Z,2.95
2018-12-22T11:48:11.504Z,3.08
2018-12-22T11:50:39.680Z,3.17
2018-12-22T11:53:07.826Z,3.03
2018-12-22T11:55:35.978Z,2.87
2018-12-22T11:58:04.248Z,3.25
2018-12-22T12:00:32.387Z,3.17
2018-12-22T12:03:00.798Z,3.37
2018-12-22T12:05:28.976Z,3.40
2018-12-22T12:07:58.090Z,3.73
2018-12-22T12:10:26.252Z,3.43
2018-12-22T12:12:54.422Z,1.92
2018-12-22T12:15:22.647Z,1.63
2018-12-22T12:18:01.218Z,2.23
2018-12-22T12:20:29.365Z,2.60
2018-12-22T12:22:57.494Z,2.95
2018-12-22T12:25:25.643Z,2.20
2018-12-22T12:27:53.793Z,2.30
2018-12-22T12:30:21.992Z,2.30
2018-12-22T12:32:50.649Z,2.40
2018-12-22T12:35:18.823Z,1.77
2018-12-22T12:37:46.942Z,2.17
2018-12-22T12:40:15.159Z,1.80
2018-12-22T12:42:43.304Z,1.87
2018-12-22T12:45:14.187Z,1.87
2018-12-22T12:47:44.913Z,2.07
2018-12-22T12:50:20.396Z,1.83
2018-12-22T12:52:48.853Z,1.90
2018-12-22T12:55:17.110Z,2.00
2018-12-22T12:57:45.237Z,2.20
2018-12-22T13:00:21.696Z,1.93
2018-12-22T13:02:49.843Z,1.83
2018-12-22T13:05:18.760Z,1.92
2018-12-22T13:07:46.919Z,2.30
2018-12-22T13:10:15.097Z,2.40
2018-12-22T13:12:59.004Z,2.43
2018-12-22T13:15:27.152Z,2.20
2018-12-22T13:17:55.325Z,2.77
2018-12-22T13:20:25.536Z,2.57
2018-12-22T13:22:53.665Z,2.93
2018-12-22T13:25:21.986Z,3.10
2018-12-22T13:27:51.474Z,3.40
2018-12-22T13:30:19.702Z,3.70
2018-12-22T13:32:48.100Z,3.70
2018-12-22T13:35:16.241Z,4.17
2018-12-22T13:37:44.544Z,4.37
2018-12-22T13:40:14.858Z,3.75
2018-12-22T13:42:43.130Z,4.43
2018-12-22T13:45:11.734Z,3.90
2018-12-22T13:47:40.092Z,4.30
2018-12-22T13:50:13.476Z,4.22
2018-12-22T13:52:41.669Z,3.80
2018-12-22T13:55:10.770Z,3.90
2018-12-22T13:57:43.443Z,3.67
2018-12-22T14:00:21.529Z,3.40
2018-12-22T14:02:49.789Z,4.90
2018-12-22T14:05:26.730Z,5.12
2018-12-22T14:07:55.014Z,4.00
2018-12-22T14:10:23.974Z,3.63
2018-12-22T14:12:52.138Z,3.53
2018-12-22T14:15:23.422Z,2.90
2018-12-22T14:21:02.538Z,3.60
2018-12-22T14:23:52.453Z,2.90
2018-12-22T14:26:20.633Z,3.60
2018-12-22T14:28:49.922Z,3.03
2018-12-22T14:31:18.049Z,3.40
2018-12-22T14:33:47.069Z,3.20
2018-12-22T14:36:15.651Z,3.60
2018-12-22T14:38:43.944Z,3.10
2018-12-22T14:41:12.295Z,2.95
2018-12-22T14:43:40.477Z,2.70
2018-12-22T14:46:08.645Z,2.57
2018-12-22T14:48:36.794Z,2.60
2018-12-22T14:51:05.223Z,2.50
2018-12-22T14:53:33.455Z,2.27
2018-12-22T14:56:01.635Z,7.43
2018-12-22T14:58:29.914Z,2.27
2018-12-22T15:00:58.119Z,3.00
2018-12-22T15:03:26.285Z,2.87
2018-12-22T15:05:54.464Z,2.85
2018-12-22T15:08:22.666Z,3.30
2018-12-22T15:10:50.908Z,3.30
2018-12-22T15:13:19.067Z,3.10
2018-12-22T15:15:47.343Z,3.30
2018-12-22T15:18:15.508Z,7.13
2018-12-22T15:20:43.704Z,6.77
2018-12-22T15:23:11.865Z,5.83
2018-12-22T15:25:40.080Z,5.40
2018-12-22T15:28:08.223Z,4.97
2018-12-22T15:30:36.404Z,3.90
2018-12-22T15:33:05.743Z,3.20
2018-12-22T15:35:34.052Z,3.10
2018-12-22T15:38:02.212Z,3.30
2018-12-22T15:40:30.403Z,3.70
2018-12-22T15:42:58.586Z,3.90
2018-12-22T15:45:26.747Z,3.37
2018-12-22T15:47:55.011Z,3.77
2018-12-22T15:50:30.443Z,3.90
2018-12-22T15:52:59.610Z,3.93
2018-12-22T15:55:27.942Z,3.60
2018-12-22T15:57:56.230Z,3.23
2018-12-22T16:00:24.393Z,3.27
2018-12-22T16:02:53.530Z,3.90
2018-12-22T16:05:21.807Z,11.03
2018-12-22T16:07:50.000Z,3.60
2018-12-22T16:10:18.257Z,4.00
2018-12-22T16:12:46.520Z,4.05
2018-12-22T16:15:22.708Z,3.80
2018-12-22T16:17:51.914Z,3.37
2018-12-22T16:20:20.115Z,3.67
2018-12-22T16:22:56.579Z,3.87
2018-12-22T16:25:24.961Z,3.80
2018-12-22T16:27:58.933Z,3.98
2018-12-22T16:30:47.511Z,4.53
2018-12-22T16:33:16.354Z,4.45
2018-12-22T16:35:44.550Z,3.70
2018-12-22T16:38:12.750Z,4.47
2018-12-22T16:40:40.940Z,4.00
2018-12-22T16:43:10.783Z,5.30
2018-12-22T16:45:41.665Z,5.55
2018-12-22T16:48:10.049Z,6.00
2018-12-22T16:50:38.632Z,5.17
2018-12-22T16:53:06.798Z,5.70
2018-12-22T16:55:34.919Z,5.90
2018-12-22T16:58:12.438Z,5.15
2018-12-22T17:00:53.323Z,5.40
2018-12-22T17:03:22.195Z,5.37
2018-12-22T17:05:50.369Z,5.20
2018-12-22T17:08:18.569Z,3.40
2018-12-22T17:10:47.938Z,2.90
2018-12-22T17:13:16.488Z,3.90
2018-12-22T17:15:45.790Z,4.67
2018-12-22T17:18:13.945Z,4.90
2018-12-22T17:20:42.259Z,5.70
2018-12-22T17:23:45.081Z,4.75
2018-12-22T17:26:13.249Z,5.00
2018-12-22T17:28:41.443Z,5.25
2018-12-22T17:31:09.629Z,4.37
2018-12-22T17:33:37.771Z,4.60
2018-12-22T17:36:06.280Z,4.63
2018-12-22T17:38:34.423Z,4.80
2018-12-22T17:41:02.731Z,4.77
2018-12-22T17:43:31.071Z,4.60
2018-12-22T17:45:59.355Z,4.12
2018-12-22T17:48:27.620Z,4.37
2018-12-22T17:50:55.910Z,4.27
2018-12-22T17:53:24.103Z,5.03
2018-12-22T17:55:52.332Z,4.03
2018-12-22T17:58:20.605Z,4.20
2018-12-22T18:00:49.175Z,4.30
2018-12-22T18:03:17.480Z,4.43
2018-12-22T18:05:45.681Z,4.63
2018-12-22T18:08:13.868Z,4.63
2018-12-22T18:10:42.030Z,4.50
2018-12-22T18:13:10.252Z,5.27
2018-12-22T18:15:38.434Z,5.07
2018-12-22T18:18:06.744Z,5.20
2018-12-22T18:20:34.908Z,5.13
2018-12-22T18:23:03.093Z,6.08
2018-12-22T18:25:31.294Z,5.70
2018-12-22T18:27:59.476Z,6.67
2018-12-22T18:30:27.631Z,6.45
2018-12-22T18:32:55.891Z,7.20
2018-12-22T18:35:24.116Z,7.27
2018-12-22T18:37:52.357Z,5.77
2018-12-22T18:40:23.112Z,4.72
2018-12-22T18:42:51.480Z,4.62
2018-12-22T18:45:19.951Z,4.20
2018-12-22T18:47:48.147Z,4.43
2018-12-22T18:50:21.039Z,4.03
2018-12-22T18:52:50.104Z,5.08
2018-12-22T18:55:18.310Z,5.80
2018-12-22T18:57:50.053Z,6.27
2018-12-22T19:00:22.330Z,6.30
2018-12-22T19:02:51.293Z,6.33
2018-12-22T19:05:20.461Z,6.50
2018-12-22T19:07:49.050Z,6.45
2018-12-22T19:10:23.193Z,5.30
2018-12-22T19:12:51.400Z,5.23
2018-12-22T19:15:19.566Z,5.07
2018-12-22T19:17:47.815Z,4.40
2018-12-22T19:20:21.662Z,5.60
2018-12-22T19:22:49.800Z,5.13
2018-12-22T19:25:17.964Z,5.22
2018-12-22T19:27:46.113Z,4.73
2018-12-22T19:30:14.258Z,4.83
2018-12-22T19:32:42.409Z,4.60
2018-12-22T19:35:10.528Z,4.67
2018-12-22T19:37:38.716Z,5.37
2018-12-22T19:40:06.936Z,5.83
2018-12-22T19:42:35.310Z,6.30
2018-12-22T19:45:05.258Z,5.20
2018-12-22T19:47:33.453Z,4.97
2018-12-22T19:50:01.621Z,6.77
2018-12-22T19:52:29.776Z,6.35
2018-12-22T19:54:58.870Z,5.75
2018-12-22T19:57:27.007Z,6.07
2018-12-22T19:59:55.167Z,6.57
2018-12-22T20:02:23.316Z,5.87
2018-12-22T20:04:51.513Z,6.10
2018-12-22T20:07:19.750Z,5.87
2018-12-22T20:09:47.862Z,5.70
2018-12-22T20:12:16.040Z,7.07
2018-12-22T20:14:44.171Z,6.17
2018-12-22T20:17:12.932Z,6.73
2018-12-22T20:19:41.746Z,6.45
2018-12-22T20:22:10.019Z,6.37
2018-12-22T20:24:38.178Z,5.93
2018-12-22T20:27:06.368Z,6.60
2018-12-22T20:29:34.549Z,7.28
2018-12-22T20:32:02.742Z,6.12
2018-12-22T20:34:30.944Z,6.55
2018-12-22T20:36:59.171Z,6.67
2018-12-22T20:39:27.409Z,6.73
2018-12-22T20:41:55.635Z,6.80
2018-12-22T20:44:23.945Z,4.93
2018-12-22T20:46:52.152Z,4.47
2018-12-22T20:49:20.387Z,4.70
2018-12-22T20:51:48.554Z,5.20
2018-12-22T20:54:16.707Z,4.97
2018-12-22T20:56:45.045Z,5.30
2018-12-22T20:59:13.186Z,5.80
2018-12-22T21:01:41.492Z,5.83
2018-12-22T21:04:10.016Z,5.90
2018-12-22T21:06:38.336Z,6.70
2018-12-22T21:09:07.532Z,6.83
2018-12-22T21:11:35.704Z,5.47
2018-12-22T21:14:04.069Z,6.07
2018-12-22T21:16:32.236Z,6.27
2018-12-22T21:19:00.374Z,6.42
2018-12-22T21:21:28.581Z,7.05
2018-12-22T21:23:56.745Z,6.30
2018-12-22T21:26:24.966Z,6.15
2018-12-22T21:28:53.155Z,6.97
2018-12-22T21:31:21.334Z,7.67
2018-12-22T21:33:49.459Z,7.10
2018-12-22T21:36:17.709Z,6.60
2018-12-22T21:38:45.880Z,6.30
2018-12-22T21:41:14.050Z,6.45
2018-12-22T21:43:42.191Z,6.55
2018-12-22T21:46:10.606Z,5.00
2018-12-22T21:48:38.773Z,5.43
2018-12-22T21:51:06.996Z,4.95
2018-12-22T21:53:35.192Z,5.07
2018-12-22T21:56:03.362Z,5.17
2018-12-22T21:58:31.639Z,5.60
2018-12-22T22:00:59.769Z,6.33
2018-12-22T22:03:27.952Z,5.93
2018-12-22T22:05:56.094Z,6.53
2018-12-22T22:08:24.247Z,6.47
2018-12-22T22:10:52.407Z,5.43
2018-12-22T22:13:20.612Z,5.97
2018-12-22T22:15:48.811Z,4.77
2018-12-22T22:18:16.963Z,4.20
2018-12-22T22:20:45.124Z,4.50
2018-12-22T22:23:18.896Z,3.80
2018-12-22T22:25:43.721Z,4.67
2018-12-22T22:28:11.914Z,3.22
2018-12-22T22:30:40.152Z,3.83
2018-12-22T22:33:08.414Z,3.83
2018-12-22T22:35:36.580Z,3.67
2018-12-22T22:38:04.918Z,3.70
2018-12-22T22:40:33.153Z,3.90
2018-12-22T22:43:02.301Z,4.50
2018-12-22T22:45:30.515Z,5.10
2018-12-22T22:47:58.705Z,5.20
2018-12-22T22:50:26.855Z,6.83
2018-12-22T22:52:55.048Z,7.63
2018-12-22T22:55:23.250Z,8.40
2018-12-22T22:57:51.428Z,9.90
2018-12-22T23:00:23.084Z,10.93
2018-12-22T23:02:51.409Z,10.20
2018-12-22T23:05:19.551Z,11.27
2018-12-22T23:07:47.842Z,8.90
2018-12-22T23:10:16.086Z,8.87
2018-12-22T23:12:44.276Z,10.07
2018-12-22T23:15:12.420Z,9.60
2018-12-22T23:17:40.607Z,8.57
2018-12-22T23:20:08.855Z,8.58
2018-12-22T23:22:37.469Z,8.60
2018-12-22T23:25:06.218Z,7.92
2018-12-22T23:27:34.372Z,8.65
2018-12-22T23:30:02.509Z,8.03
2018-12-22T23:32:30.721Z,8.30
2018-12-22T23:35:03.000Z,8.33
2018-12-22T23:37:29.081Z,8.20
2018-12-22T23:39:57.258Z,7.90
2018-12-22T23:42:25.431Z,7.87
2018-12-22T23:44:53.872Z,8.10
2018-12-22T23:47:22.059Z,7.43
2018-12-22T23:49:50.209Z,7.15
2018-12-22T23:52:18.364Z,7.90
2018-12-22T23:54:46.462Z,7.67
2018-12-22T23:57:14.594Z,6.90
2018-12-22T23:59:42.702Z,7.70
